HRYR/KGL METAR and TAF weather

Enter ICAO airport designator
Station Type Date Time Source
HRYR METAR 2019/12/13 19:30 UTC NOAA

HRYR 131930Z 31004KT 230V340 9999 FEW025 SCT100 17/15 Q1021 NOSIG


Station Type Date Time Source
HRYR Decoded METAR 2019/12/13 19:30 UTC NOAA

Kigali, Rwanda (HRYR) 01-58S 030-07E 1497M
Dec 13, 2019 - 02:30 PM EST / 2019.12.13 1930 UTC
Wind: from the NW (310 degrees) at 5 MPH (4 KT) (direction variable):0
Visibility: greater than 7 mile(s):0
Sky conditions: partly cloudy
Temperature: 62 F (17 C)
Dew Point: 59 F (15 C)
Relative Humidity: 88%
Pressure (altimeter): 30.15 in. Hg (1021 hPa)
ob: HRYR 131930Z 31004KT 230V340 9999 FEW025 SCT100 17/15 Q1021 NOSIG
cycle: 19

Station Type Date Time Source
HRYR TAF 2019/12/13 18:57 UTC NOAA

TAF HRYR 131700Z 1318/1424 17004KT 9999 FEW025 SCT100 FM 132200 32004KT -RA SCT026 BKN100
BECMG 1402/1406 00000KT 0300 FG SCT005 SCT026 FM 140900 20008KT 9999 BKN025
TEMPO 1411/1415 12012KT -TSRA FEW022CB BKN023 FM 141900 06003KT SCT025 SCT100

Example: see airport list